Time;durP1;ratioP1;P1;durP2;ratioP2;P2;SDS_P1;SDS_P2;PMS_P1;PMS_P2;Temp;Humidity;BMP_temperature;BMP_pressure;BME280_temperature;BME280_humidity;BME280_pressure;Samples;Min_cycle;Max_cycle;Signal;HPM_P1;HPM_P2
2022/07/01 00:01:44;;;;;;;6.90;6.35;;;;;;;;;;5075916;28;20295;-83
2022/07/01 00:04:12;;;;;;;6.82;6.32;;;;;;;;;;5075767;28;20288;-83
2022/07/01 00:06:40;;;;;;;7.68;7.03;;;;;;;;;;5076477;28;20209;-82
2022/07/01 00:09:08;;;;;;;7.78;6.72;;;;;;;;;;5076988;28;20282;-81
2022/07/01 00:11:36;;;;;;;7.43;6.82;;;;;;;;;;5076077;28;20688;-83
2022/07/01 00:14:04;;;;;;;8.15;7.45;;;;;;;;;;5076772;28;20205;-82
2022/07/01 00:16:31;;;;;;;7.93;6.80;;;;;;;;;;5076197;28;20200;-83
2022/07/01 00:19:00;;;;;;;6.07;5.57;;;;;;;;;;5074776;28;20236;-83
2022/07/01 00:21:28;;;;;;;6.50;5.88;;;;;;;;;;5075042;28;20185;-83
2022/07/01 00:23:56;;;;;;;5.80;5.35;;;;;;;;;;5074615;28;20689;-83
2022/07/01 00:26:24;;;;;;;6.78;6.22;;;;;;;;;;5075075;28;20201;-82
2022/07/01 00:28:51;;;;;;;6.15;5.65;;;;;;;;;;5074946;28;20252;-84
2022/07/01 00:31:19;;;;;;;5.60;5.20;;;;;;;;;;5075537;28;20207;-82
2022/07/01 00:33:46;;;;;;;5.00;4.60;;;;;;;;;;5075617;28;20205;-83
2022/07/01 00:36:15;;;;;;;3.97;3.67;;;;;;;;;;5075320;28;20247;-83
2022/07/01 00:38:43;;;;;;;3.78;3.47;;;;;;;;;;5075430;28;20252;-82
2022/07/01 00:41:10;;;;;;;3.70;3.50;;;;;;;;;;5075470;28;20282;-83
2022/07/01 00:43:39;;;;;;;3.85;3.55;;;;;;;;;;5075688;28;20204;-82
2022/07/01 00:46:07;;;;;;;3.40;3.20;;;;;;;;;;5076692;28;20204;-83
2022/07/01 00:48:36;;;;;;;3.00;2.80;;;;;;;;;;5075064;28;20271;-83
2022/07/01 00:51:03;;;;;;;3.17;2.97;;;;;;;;;;5074475;28;20287;-83
2022/07/01 00:53:33;;;;;;;2.50;2.30;;;;;;;;;;5074299;28;20207;-83
2022/07/01 00:56:01;;;;;;;2.60;2.40;;;;;;;;;;5074872;28;20228;-83
2022/07/01 00:58:29;;;;;;;3.15;2.95;;;;;;;;;;5075341;28;20259;-83
2022/07/01 01:00:57;;;;;;;2.60;2.40;;;;;;;;;;5074403;28;20263;-82
2022/07/01 01:03:24;;;;;;;3.72;3.42;;;;;;;;;;5073407;28;20260;-82
2022/07/01 01:05:54;;;;;;;3.65;3.45;;;;;;;;;;5074034;28;20705;-81
2022/07/01 01:08:22;;;;;;;3.58;3.28;;;;;;;;;;5074605;28;20221;-82
2022/07/01 01:10:51;;;;;;;2.90;2.65;;;;;;;;;;5074674;28;20201;-83
2022/07/01 01:13:19;;;;;;;3.75;3.40;;;;;;;;;;5074540;28;20239;-83
2022/07/01 01:15:46;;;;;;;3.50;3.20;;;;;;;;;;5074301;28;20616;-82
2022/07/01 01:18:14;;;;;;;3.03;2.83;;;;;;;;;;5073214;28;20256;-83
2022/07/01 01:20:43;;;;;;;2.83;2.63;;;;;;;;;;5073651;28;20256;-83
2022/07/01 01:23:10;;;;;;;3.50;3.20;;;;;;;;;;5074395;28;20236;-83
2022/07/01 01:25:38;;;;;;;3.83;3.60;;;;;;;;;;5074104;28;20681;-82
2022/07/01 01:28:06;;;;;;;3.85;3.55;;;;;;;;;;5074555;28;20252;-82
2022/07/01 01:30:35;;;;;;;2.40;2.30;;;;;;;;;;5074188;28;20240;-82
2022/07/01 01:33:03;;;;;;;3.20;3.00;;;;;;;;;;5075455;28;20201;-82
2022/07/01 01:35:31;;;;;;;2.35;2.25;;;;;;;;;;5078098;28;20258;-81
2022/07/01 01:38:00;;;;;;;3.60;3.40;;;;;;;;;;5077860;28;20220;-80
2022/07/01 01:40:28;;;;;;;2.88;2.67;;;;;;;;;;5079092;28;20720;-82
2022/07/01 01:42:55;;;;;;;3.00;2.80;;;;;;;;;;5079858;28;20205;-82
2022/07/01 01:45:23;;;;;;;3.17;2.97;;;;;;;;;;5079926;28;20205;-83
2022/07/01 01:47:50;;;;;;;2.80;2.60;;;;;;;;;;5079124;28;20217;-83
2022/07/01 01:50:19;;;;;;;2.55;2.40;;;;;;;;;;5080246;28;20209;-82
2022/07/01 01:52:47;;;;;;;2.13;2.03;;;;;;;;;;5079312;28;20258;-81
2022/07/01 01:55:16;;;;;;;2.00;1.90;;;;;;;;;;5080045;28;20201;-83
2022/07/01 01:57:44;;;;;;;3.95;3.03;;;;;;;;;;5080374;28;20303;-82
2022/07/01 02:00:13;;;;;;;2.10;2.00;;;;;;;;;;5079637;28;20232;-84
2022/07/01 02:02:41;;;;;;;2.67;2.47;;;;;;;;;;5079313;28;20232;-84
2022/07/01 02:05:12;;;;;;;2.78;2.58;;;;;;;;;;5079604;28;20228;-84
2022/07/01 02:07:40;;;;;;;1.95;1.85;;;;;;;;;;5079395;28;20225;-84
2022/07/01 02:10:09;;;;;;;1.77;1.67;;;;;;;;;;5079592;28;20322;-82
2022/07/01 02:12:38;;;;;;;2.50;2.30;;;;;;;;;;5079250;28;20228;-84
2022/07/01 02:15:08;;;;;;;2.30;2.20;;;;;;;;;;5079882;28;20640;-83
2022/07/01 02:17:35;;;;;;;2.42;2.33;;;;;;;;;;5079073;28;20694;-84
2022/07/01 02:20:04;;;;;;;1.77;1.67;;;;;;;;;;5078432;28;20243;-84
2022/07/01 02:22:31;;;;;;;2.53;2.42;;;;;;;;;;5078522;28;20209;-83
2022/07/01 02:24:59;;;;;;;2.08;1.98;;;;;;;;;;5078364;28;20254;-83
2022/07/01 02:27:26;;;;;;;2.53;2.20;;;;;;;;;;5078060;28;20325;-84
2022/07/01 02:29:55;;;;;;;2.53;2.30;;;;;;;;;;5079304;28;20288;-84
2022/07/01 02:32:22;;;;;;;2.50;2.33;;;;;;;;;;5078191;28;20196;-83
2022/07/01 02:34:51;;;;;;;2.20;2.00;;;;;;;;;;5077970;28;20208;-84
2022/07/01 02:37:18;;;;;;;2.50;2.30;;;;;;;;;;5078965;28;20291;-83
2022/07/01 02:39:46;;;;;;;2.55;2.30;;;;;;;;;;5078453;28;20231;-84
2022/07/01 02:42:34;;;;;;;2.10;2.00;;;;;;;;;;5077509;28;20256;-83
2022/07/01 02:45:04;;;;;;;2.15;2.05;;;;;;;;;;5077962;28;20232;-83
2022/07/01 02:47:35;;;;;;;1.80;1.70;;;;;;;;;;5078892;28;20221;-83
2022/07/01 02:50:03;;;;;;;1.77;1.67;;;;;;;;;;5078294;28;20292;-83
2022/07/01 02:52:30;;;;;;;2.33;2.13;;;;;;;;;;5078100;28;20207;-83
2022/07/01 02:54:58;;;;;;;2.38;2.22;;;;;;;;;;5077739;28;20292;-83
2022/07/01 02:57:26;;;;;;;2.30;2.10;;;;;;;;;;5078521;28;20201;-83
2022/07/01 02:59:53;;;;;;;1.98;1.88;;;;;;;;;;5078692;28;20245;-83
2022/07/01 03:02:22;;;;;;;2.58;2.38;;;;;;;;;;5078072;28;20285;-83
2022/07/01 03:04:51;;;;;;;2.33;2.22;;;;;;;;;;5079048;28;20233;-82
2022/07/01 03:07:20;;;;;;;2.20;2.10;;;;;;;;;;5078975;28;20197;-83
2022/07/01 03:09:48;;;;;;;2.65;2.45;;;;;;;;;;5079284;28;20288;-84
2022/07/01 03:12:28;;;;;;;2.58;2.38;;;;;;;;;;5078135;28;20232;-83
2022/07/01 03:14:57;;;;;;;3.67;3.38;;;;;;;;;;5078561;28;20185;-82
2022/07/01 03:17:27;;;;;;;3.15;2.95;;;;;;;;;;5078927;28;20232;-82
2022/07/01 03:19:55;;;;;;;3.08;2.85;;;;;;;;;;5079162;28;20243;-83
2022/07/01 03:22:24;;;;;;;4.03;3.30;;;;;;;;;;5079132;28;20735;-83
2022/07/01 03:24:53;;;;;;;4.20;3.90;;;;;;;;;;5079999;28;20197;-84
2022/07/01 03:27:21;;;;;;;3.63;3.35;;;;;;;;;;5079277;28;20727;-83
2022/07/01 03:29:49;;;;;;;4.00;3.70;;;;;;;;;;5079269;28;20217;-84
2022/07/01 03:32:17;;;;;;;3.15;2.95;;;;;;;;;;5076549;28;20232;-82
2022/07/01 03:34:48;;;;;;;3.90;3.60;;;;;;;;;;5078260;28;20200;-83
2022/07/01 03:37:17;;;;;;;4.68;4.28;;;;;;;;;;5078695;28;20189;-84
2022/07/01 03:39:45;;;;;;;4.35;3.97;;;;;;;;;;5076939;28;20254;-84
2022/07/01 03:42:13;;;;;;;4.30;4.00;;;;;;;;;;5078923;28;20363;-83
2022/07/01 03:44:41;;;;;;;3.38;3.15;;;;;;;;;;5078459;28;20255;-83
2022/07/01 03:47:08;;;;;;;4.13;3.80;;;;;;;;;;5078034;28;20220;-84
2022/07/01 03:49:36;;;;;;;3.35;3.05;;;;;;;;;;5078177;28;20205;-84
2022/07/01 03:52:06;;;;;;;5.03;4.53;;;;;;;;;;5078752;28;20240;-84
2022/07/01 03:54:37;;;;;;;4.70;4.30;;;;;;;;;;5077680;28;20237;-85
2022/07/01 03:57:06;;;;;;;4.80;4.40;;;;;;;;;;5077290;28;20651;-83
2022/07/01 03:59:36;;;;;;;4.20;3.80;;;;;;;;;;5078190;28;20258;-83
2022/07/01 04:02:05;;;;;;;4.20;3.80;;;;;;;;;;5077887;28;20225;-82
2022/07/01 04:04:32;;;;;;;4.10;3.75;;;;;;;;;;5078668;28;20296;-83
2022/07/01 04:07:02;;;;;;;4.32;3.95;;;;;;;;;;5078989;28;20236;-83
2022/07/01 04:09:31;;;;;;;3.97;3.67;;;;;;;;;;5078757;28;20233;-83
2022/07/01 04:11:59;;;;;;;3.55;3.25;;;;;;;;;;5077292;28;20236;-84
2022/07/01 04:14:27;;;;;;;3.65;3.35;;;;;;;;;;5078596;28;20205;-84
2022/07/01 04:16:54;;;;;;;4.05;3.75;;;;;;;;;;5079259;28;20693;-83
2022/07/01 04:19:22;;;;;;;3.13;2.92;;;;;;;;;;5078145;28;20675;-83
2022/07/01 04:24:36;;;;;;;3.00;2.80;;;;;;;;;;5078077;28;20318;-83
2022/07/01 04:27:03;;;;;;;3.72;3.38;;;;;;;;;;5078159;28;20677;-82
2022/07/01 04:29:31;;;;;;;3.10;2.80;;;;;;;;;;5078062;28;20308;-83
2022/07/01 04:31:59;;;;;;;3.55;3.25;;;;;;;;;;5076022;28;20197;-83
2022/07/01 04:34:27;;;;;;;2.50;2.30;;;;;;;;;;5076747;28;20247;-84
2022/07/01 04:36:55;;;;;;;4.30;3.40;;;;;;;;;;5077377;28;20239;-83
2022/07/01 04:39:23;;;;;;;2.67;2.45;;;;;;;;;;5077412;28;20247;-84
2022/07/01 04:42:00;;;;;;;2.58;2.38;;;;;;;;;;5076499;28;20257;-83
2022/07/01 04:44:28;;;;;;;2.58;2.40;;;;;;;;;;5077423;28;20196;-83
2022/07/01 04:46:56;;;;;;;2.40;2.25;;;;;;;;;;5077722;28;20688;-83
2022/07/01 04:49:23;;;;;;;2.30;2.10;;;;;;;;;;5077162;28;20263;-83
2022/07/01 04:51:51;;;;;;;3.08;2.88;;;;;;;;;;5076485;28;20640;-83
2022/07/01 04:54:19;;;;;;;2.55;2.35;;;;;;;;;;5076816;28;20232;-84
2022/07/01 04:56:47;;;;;;;1.98;1.88;;;;;;;;;;5076679;28;20205;-83
2022/07/01 04:59:17;;;;;;;2.50;2.30;;;;;;;;;;5076867;28;20224;-82
2022/07/01 05:01:45;;;;;;;2.28;2.08;;;;;;;;;;5076466;28;20218;-83
2022/07/01 05:04:13;;;;;;;2.35;2.10;;;;;;;;;;5077713;28;20632;-82
2022/07/01 05:06:41;;;;;;;2.28;2.08;;;;;;;;;;5077115;28;20262;-84
2022/07/01 05:09:09;;;;;;;3.03;2.80;;;;;;;;;;5076188;28;20228;-83
2022/07/01 05:11:36;;;;;;;2.55;2.35;;;;;;;;;;5075918;28;20228;-82
2022/07/01 05:14:04;;;;;;;2.80;2.60;;;;;;;;;;5076554;28;20239;-82
2022/07/01 05:16:33;;;;;;;3.05;2.53;;;;;;;;;;5077135;28;20235;-82
2022/07/01 05:21:58;;;;;;;2.38;2.17;;;;;;;;;;5076085;28;20726;-82
2022/07/01 05:24:31;;;;;;;2.58;2.38;;;;;;;;;;5076532;28;20200;-81
2022/07/01 05:27:01;;;;;;;2.58;2.35;;;;;;;;;;5076728;28;20287;-83
2022/07/01 05:29:28;;;;;;;2.00;1.90;;;;;;;;;;5076771;28;20282;-82
2022/07/01 05:31:57;;;;;;;2.22;2.13;;;;;;;;;;5074717;28;20295;-81
2022/07/01 05:34:25;;;;;;;2.10;2.00;;;;;;;;;;5076497;28;20235;-81
2022/07/01 05:36:53;;;;;;;1.65;1.55;;;;;;;;;;5076541;28;20638;-82
2022/07/01 05:39:20;;;;;;;1.63;1.52;;;;;;;;;;5076365;28;20272;-81
2022/07/01 05:41:48;;;;;;;1.80;1.70;;;;;;;;;;5075465;28;20283;-82
2022/07/01 05:44:15;;;;;;;1.98;1.88;;;;;;;;;;5076924;28;20256;-81
2022/07/01 05:46:43;;;;;;;2.17;2.08;;;;;;;;;;5076367;28;20273;-80
2022/07/01 05:49:12;;;;;;;2.13;1.92;;;;;;;;;;5073878;28;20256;-81
2022/07/01 05:51:39;;;;;;;1.65;1.55;;;;;;;;;;5074160;28;20211;-80
2022/07/01 05:54:07;;;;;;;1.60;1.50;;;;;;;;;;5073845;28;20702;-80
2022/07/01 05:56:34;;;;;;;1.85;1.73;;;;;;;;;;5075233;28;20690;-80
2022/07/01 05:59:02;;;;;;;1.40;1.30;;;;;;;;;;5075303;28;20271;-80
2022/07/01 06:01:29;;;;;;;1.65;1.55;;;;;;;;;;5074536;28;20232;-80
2022/07/01 06:03:57;;;;;;;1.52;1.42;;;;;;;;;;5075109;28;20217;-80
2022/07/01 06:06:26;;;;;;;2.10;2.00;;;;;;;;;;5074846;28;20566;-80
2022/07/01 06:08:53;;;;;;;2.30;2.10;;;;;;;;;;5074168;28;20256;-80
2022/07/01 06:11:21;;;;;;;1.90;1.80;;;;;;;;;;5074198;28;20212;-79
2022/07/01 06:13:48;;;;;;;2.40;2.00;;;;;;;;;;5073409;28;20706;-80
2022/07/01 06:16:16;;;;;;;2.00;1.90;;;;;;;;;;5074153;28;20233;-80
2022/07/01 06:18:43;;;;;;;2.05;1.95;;;;;;;;;;5074239;28;20279;-80
2022/07/01 06:21:11;;;;;;;1.60;1.42;;;;;;;;;;5076383;28;20692;-80
2022/07/01 06:23:40;;;;;;;1.88;1.77;;;;;;;;;;5075310;28;20256;-80
2022/07/01 06:26:07;;;;;;;1.95;1.63;;;;;;;;;;5075907;28;20242;-80
2022/07/01 06:28:35;;;;;;;2.15;1.95;;;;;;;;;;5075587;28;20725;-80
2022/07/01 06:31:02;;;;;;;2.00;1.90;;;;;;;;;;5075676;28;20236;-80
2022/07/01 06:33:30;;;;;;;1.75;1.65;;;;;;;;;;5074377;28;20280;-80
2022/07/01 06:35:58;;;;;;;1.80;1.70;;;;;;;;;;5075158;28;20731;-80
2022/07/01 06:38:26;;;;;;;1.70;1.60;;;;;;;;;;5075522;28;20216;-80
2022/07/01 06:43:40;;;;;;;2.50;2.30;;;;;;;;;;5076502;28;20212;-81
2022/07/01 06:46:08;;;;;;;3.83;1.50;;;;;;;;;;5076251;28;20201;-81
2022/07/01 06:48:35;;;;;;;1.70;1.60;;;;;;;;;;5076738;28;20263;-81
2022/07/01 06:51:03;;;;;;;1.60;1.50;;;;;;;;;;5076017;28;20233;-80
2022/07/01 06:53:30;;;;;;;1.92;1.83;;;;;;;;;;5076917;28;20321;-81
2022/07/01 06:55:59;;;;;;;1.00;1.00;;;;;;;;;;5077179;28;20284;-80
2022/07/01 06:58:27;;;;;;;1.73;1.63;;;;;;;;;;5076635;28;20248;-80
2022/07/01 07:00:54;;;;;;;1.67;1.58;;;;;;;;;;5076533;28;20236;-80
2022/07/01 07:03:22;;;;;;;1.90;1.80;;;;;;;;;;5076128;28;20342;-81
2022/07/01 07:05:50;;;;;;;1.88;1.60;;;;;;;;;;5077207;28;20695;-80
2022/07/01 07:08:17;;;;;;;1.50;1.40;;;;;;;;;;5076963;28;20269;-80
2022/07/01 07:10:45;;;;;;;1.10;1.10;;;;;;;;;;5077569;28;20628;-80
2022/07/01 07:13:14;;;;;;;1.33;1.23;;;;;;;;;;5077537;28;20237;-80
2022/07/01 07:15:41;;;;;;;1.50;1.40;;;;;;;;;;5077726;28;20288;-80
2022/07/01 07:18:09;;;;;;;1.23;1.15;;;;;;;;;;5076979;28;20220;-80
2022/07/01 07:20:36;;;;;;;1.63;1.52;;;;;;;;;;5076935;28;20209;-80
2022/07/01 07:23:04;;;;;;;1.10;1.10;;;;;;;;;;5076994;28;20705;-80
2022/07/01 07:25:31;;;;;;;1.80;1.70;;;;;;;;;;5077185;28;20613;-80
2022/07/01 07:27:59;;;;;;;1.20;1.20;;;;;;;;;;5077054;28;20263;-80
2022/07/01 07:30:28;;;;;;;1.35;1.25;;;;;;;;;;5076667;28;20232;-80
2022/07/01 07:32:56;;;;;;;1.58;1.48;;;;;;;;;;5075279;28;20236;-80
2022/07/01 07:35:24;;;;;;;1.35;1.25;;;;;;;;;;5076518;28;20646;-80
2022/07/01 07:37:51;;;;;;;1.30;1.20;;;;;;;;;;5076115;28;20366;-81
2022/07/01 07:40:19;;;;;;;1.75;1.65;;;;;;;;;;5075466;28;20680;-81
2022/07/01 07:42:47;;;;;;;1.40;1.30;;;;;;;;;;5074899;28;20681;-82
2022/07/01 07:45:15;;;;;;;1.70;1.60;;;;;;;;;;5075457;28;20259;-81
2022/07/01 07:47:48;;;;;;;1.60;1.50;;;;;;;;;;5075588;28;20697;-82
2022/07/01 07:50:15;;;;;;;1.70;1.60;;;;;;;;;;5075324;28;20205;-82
2022/07/01 07:52:43;;;;;;;1.20;1.20;;;;;;;;;;5074333;28;20205;-82
2022/07/01 07:55:11;;;;;;;1.50;1.40;;;;;;;;;;5074528;28;20235;-82
2022/07/01 07:57:40;;;;;;;1.00;1.00;;;;;;;;;;5074759;28;20303;-82
2022/07/01 08:00:11;;;;;;;1.73;1.63;;;;;;;;;;5075011;28;20197;-82
2022/07/01 08:02:39;;;;;;;1.85;1.70;;;;;;;;;;5073280;28;20225;-82
2022/07/01 08:05:10;;;;;;;1.10;1.10;;;;;;;;;;5075669;28;20248;-82
2022/07/01 08:07:38;;;;;;;1.42;1.33;;;;;;;;;;5074691;28;20308;-82
2022/07/01 08:10:07;;;;;;;1.98;1.88;;;;;;;;;;5074851;28;20201;-82
2022/07/01 08:12:35;;;;;;;1.95;1.85;;;;;;;;;;5074391;28;20232;-82
2022/07/01 08:15:03;;;;;;;2.25;1.48;;;;;;;;;;5074811;28;20224;-82
2022/07/01 08:17:32;;;;;;;1.15;1.15;;;;;;;;;;5074673;28;20725;-82
2022/07/01 08:19:59;;;;;;;1.30;1.20;;;;;;;;;;5074431;28;20288;-81
2022/07/01 08:22:28;;;;;;;1.38;1.33;;;;;;;;;;5074967;28;20280;-81
2022/07/01 08:24:56;;;;;;;1.67;1.58;;;;;;;;;;5074860;28;20231;-81
2022/07/01 08:27:23;;;;;;;1.73;1.63;;;;;;;;;;5074469;28;20211;-81
2022/07/01 08:29:51;;;;;;;1.73;1.63;;;;;;;;;;5074873;28;20296;-81
2022/07/01 08:32:19;;;;;;;1.90;1.80;;;;;;;;;;5073279;28;20638;-81
2022/07/01 08:34:46;;;;;;;1.60;1.50;;;;;;;;;;5074759;28;20224;-81
2022/07/01 08:37:14;;;;;;;2.33;2.03;;;;;;;;;;5074373;28;20209;-81
2022/07/01 08:39:43;;;;;;;2.10;2.00;;;;;;;;;;5074644;28;20201;-81
2022/07/01 08:42:10;;;;;;;1.67;1.58;;;;;;;;;;5074406;28;20288;-81
2022/07/01 08:44:38;;;;;;;1.92;1.83;;;;;;;;;;5073514;28;20320;-81
2022/07/01 08:47:06;;;;;;;3.50;2.08;;;;;;;;;;5074439;28;20232;-82
2022/07/01 08:49:33;;;;;;;2.20;2.10;;;;;;;;;;5074137;28;20586;-82
2022/07/01 08:52:01;;;;;;;2.13;2.03;;;;;;;;;;5074140;28;20220;-81
2022/07/01 08:54:28;;;;;;;1.88;1.77;;;;;;;;;;5073661;28;20283;-82
2022/07/01 08:56:57;;;;;;;2.63;2.40;;;;;;;;;;5073641;28;20233;-82
2022/07/01 08:59:27;;;;;;;2.00;1.90;;;;;;;;;;5074164;28;20680;-81
2022/07/01 09:02:00;;;;;;;2.13;2.00;;;;;;;;;;5074138;28;20290;-81
2022/07/01 09:04:29;;;;;;;1.83;1.73;;;;;;;;;;5074348;28;20248;-82
2022/07/01 09:07:05;;;;;;;2.25;2.05;;;;;;;;;;5074134;28;20197;-81
2022/07/01 09:09:37;;;;;;;2.03;1.92;;;;;;;;;;5073970;28;20721;-81
2022/07/01 09:12:07;;;;;;;2.20;2.00;;;;;;;;;;5074540;28;20298;-81
2022/07/01 09:14:36;;;;;;;1.90;1.80;;;;;;;;;;5074669;28;20659;-81
2022/07/01 09:17:06;;;;;;;1.67;1.58;;;;;;;;;;5074662;28;20291;-82
2022/07/01 09:19:36;;;;;;;1.65;1.55;;;;;;;;;;5074154;28;20236;-82
2022/07/01 09:22:05;;;;;;;1.65;1.55;;;;;;;;;;5053821;28;20205;-82
2022/07/01 09:24:34;;;;;;;1.60;1.50;;;;;;;;;;5054031;28;20232;-82
2022/07/01 09:27:10;;;;;;;1.67;1.58;;;;;;;;;;5053755;28;20201;-81
2022/07/01 09:29:40;;;;;;;1.50;1.40;;;;;;;;;;5054533;28;20190;-82
2022/07/01 09:32:09;;;;;;;1.60;1.50;;;;;;;;;;5053556;28;20221;-82
2022/07/01 09:34:42;;;;;;;1.50;1.40;;;;;;;;;;5053989;28;20686;-82
2022/07/01 09:37:14;;;;;;;1.10;1.10;;;;;;;;;;5056934;28;20226;-84
2022/07/01 09:39:46;;;;;;;1.30;1.20;;;;;;;;;;5075486;28;20207;-83
2022/07/01 09:42:17;;;;;;;1.30;1.20;;;;;;;;;;5073765;28;20203;-84
2022/07/01 09:44:54;;;;;;;1.20;1.20;;;;;;;;;;5074552;28;20208;-84
2022/07/01 09:47:24;;;;;;;1.02;1.02;;;;;;;;;;5073781;28;20199;-82
2022/07/01 09:49:52;;;;;;;1.05;1.05;;;;;;;;;;5073505;28;20204;-83
2022/07/01 09:52:20;;;;;;;1.20;1.20;;;;;;;;;;5065762;28;20229;-84
2022/07/01 09:54:49;;;;;;;1.05;1.02;;;;;;;;;;5075434;28;20673;-86
2022/07/01 09:57:19;;;;;;;1.30;1.20;;;;;;;;;;5078793;28;20220;-83
2022/07/01 09:59:47;;;;;;;1.55;1.45;;;;;;;;;;5080066;28;20243;-84
2022/07/01 10:02:14;;;;;;;1.27;1.17;;;;;;;;;;5079142;28;20266;-84
2022/07/01 10:04:47;;;;;;;1.23;1.13;;;;;;;;;;5079490;28;20724;-83
2022/07/01 10:07:30;;;;;;;1.65;1.55;;;;;;;;;;5080505;28;20209;-84
2022/07/01 10:10:16;;;;;;;1.27;1.02;;;;;;;;;;5079655;28;20592;-84
2022/07/01 10:12:49;;;;;;;1.92;1.10;;;;;;;;;;5078168;28;20225;-84
2022/07/01 10:15:19;;;;;;;1.48;1.10;;;;;;;;;;5078948;28;20197;-81
2022/07/01 10:17:49;;;;;;;2.63;1.00;;;;;;;;;;5078640;28;20221;-82
2022/07/01 10:20:20;;;;;;;0.98;0.98;;;;;;;;;;5078867;28;20240;-83
2022/07/01 10:22:48;;;;;;;1.00;1.00;;;;;;;;;;5077240;28;20200;-82
2022/07/01 10:25:43;;;;;;;1.10;1.10;;;;;;;;;;5077829;28;20650;-83
2022/07/01 10:28:17;;;;;;;0.90;0.90;;;;;;;;;;5077181;28;20310;-82
2022/07/01 10:31:03;;;;;;;0.57;0.57;;;;;;;;;;5077515;28;20231;-83
2022/07/01 10:33:40;;;;;;;0.82;0.82;;;;;;;;;;5076165;28;20224;-82
2022/07/01 10:36:10;;;;;;;0.80;0.80;;;;;;;;;;5077298;28;20232;-82
2022/07/01 10:39:22;;;;;;;1.95;0.90;;;;;;;;;;5077311;28;20252;-84
2022/07/01 10:42:03;;;;;;;0.90;0.90;;;;;;;;;;5077442;28;20205;-82
2022/07/01 10:44:35;;;;;;;0.70;0.70;;;;;;;;;;5077628;28;20295;-82
2022/07/01 10:47:08;;;;;;;1.00;1.00;;;;;;;;;;5078061;28;20217;-81
2022/07/01 10:50:00;;;;;;;0.82;0.82;;;;;;;;;;5079066;28;20224;-83
2022/07/01 10:52:28;;;;;;;0.88;0.77;;;;;;;;;;5057692;28;20641;-82
2022/07/01 10:54:59;;;;;;;1.02;1.02;;;;;;;;;;5056941;28;20233;-82
2022/07/01 10:57:40;;;;;;;0.80;0.80;;;;;;;;;;5057270;28;21609;-82
2022/07/01 11:00:35;;;;;;;0.80;0.80;;;;;;;;;;5057358;28;20285;-82
2022/07/01 11:03:22;;;;;;;1.73;0.90;;;;;;;;;;5057187;28;20186;-82
2022/07/01 11:05:53;;;;;;;1.00;1.00;;;;;;;;;;5056434;28;20343;-80
2022/07/01 11:08:21;;;;;;;1.05;1.00;;;;;;;;;;5057419;28;20221;-83
2022/07/01 11:10:57;;;;;;;0.98;0.98;;;;;;;;;;5057598;28;20229;-83
2022/07/01 11:13:25;;;;;;;0.90;0.90;;;;;;;;;;5056869;28;20220;-80
2022/07/01 11:15:53;;;;;;;0.93;0.93;;;;;;;;;;5056682;28;20225;-81
2022/07/01 11:18:21;;;;;;;0.90;0.90;;;;;;;;;;5056574;28;20253;-82
2022/07/01 11:20:49;;;;;;;0.90;0.90;;;;;;;;;;5066627;28;20240;-82
2022/07/01 11:23:20;;;;;;;1.33;0.90;;;;;;;;;;5076828;28;20708;-82
2022/07/01 11:25:47;;;;;;;0.80;0.80;;;;;;;;;;5077013;28;20209;-81
2022/07/01 11:28:16;;;;;;;1.38;0.80;;;;;;;;;;5076972;28;20667;-81
2022/07/01 11:30:44;;;;;;;0.93;0.93;;;;;;;;;;5076601;28;20197;-82
2022/07/01 11:33:11;;;;;;;2.15;0.95;;;;;;;;;;5075657;28;20227;-83
2022/07/01 11:41:21;;;;;;;1.10;1.10;;;;;;;;;;5076018;28;20666;-83
2022/07/01 11:43:51;;;;;;;1.42;1.33;;;;;;;;;;5076107;28;20281;-82
2022/07/01 11:46:18;;;;;;;0.80;0.80;;;;;;;;;;5075786;28;20205;-82
2022/07/01 11:48:50;;;;;;;1.33;1.23;;;;;;;;;;5075319;28;20315;-82
2022/07/01 11:51:20;;;;;;;0.80;0.80;;;;;;;;;;5075794;28;20205;-82
2022/07/01 11:53:49;;;;;;;0.70;0.70;;;;;;;;;;5074871;28;20254;-81
2022/07/01 11:56:18;;;;;;;1.15;1.15;;;;;;;;;;5075589;28;20193;-81
2022/07/01 11:58:52;;;;;;;1.30;1.20;;;;;;;;;;5075830;28;20322;-81
2022/07/01 12:01:25;;;;;;;2.90;2.58;;;;;;;;;;5075682;28;20201;-83
2022/07/01 12:03:54;;;;;;;1.58;1.48;;;;;;;;;;5075514;28;20229;-83
2022/07/01 12:06:23;;;;;;;1.60;1.50;;;;;;;;;;5075718;28;20225;-83
2022/07/01 12:08:51;;;;;;;1.58;1.50;;;;;;;;;;5075794;28;20276;-82
2022/07/01 12:11:21;;;;;;;1.80;1.70;;;;;;;;;;5075394;28;20233;-83
2022/07/01 12:13:51;;;;;;;1.85;1.75;;;;;;;;;;5075751;28;20583;-82
2022/07/01 12:16:20;;;;;;;2.00;1.90;;;;;;;;;;5076559;28;20228;-82
2022/07/01 12:19:00;;;;;;;2.38;2.17;;;;;;;;;;5074231;28;20290;-82
2022/07/01 12:21:29;;;;;;;3.00;2.50;;;;;;;;;;5075934;28;20192;-82
2022/07/01 12:24:08;;;;;;;3.65;2.47;;;;;;;;;;5075078;28;20207;-82
2022/07/01 12:26:46;;;;;;;2.70;2.53;;;;;;;;;;5075278;28;20355;-83
2022/07/01 12:29:16;;;;;;;3.58;3.28;;;;;;;;;;5074179;28;20220;-82
2022/07/01 12:31:44;;;;;;;2.10;2.00;;;;;;;;;;5074336;28;20248;-82
2022/07/01 12:34:12;;;;;;;2.25;2.15;;;;;;;;;;5073836;28;20224;-81
2022/07/01 12:36:47;;;;;;;3.10;2.90;;;;;;;;;;5074604;28;20777;-81
2022/07/01 12:39:14;;;;;;;2.28;2.17;;;;;;;;;;5074602;28;20289;-81
2022/07/01 12:41:44;;;;;;;2.40;2.20;;;;;;;;;;5073989;28;20228;-83
2022/07/01 12:44:24;;;;;;;2.38;2.17;;;;;;;;;;5073572;28;20624;-83
2022/07/01 12:46:52;;;;;;;2.50;2.30;;;;;;;;;;5074191;28;20244;-82
2022/07/01 12:49:24;;;;;;;3.20;2.25;;;;;;;;;;5073715;28;20651;-82
2022/07/01 12:51:53;;;;;;;2.50;2.30;;;;;;;;;;5072380;28;20240;-81
2022/07/01 12:54:32;;;;;;;2.22;2.03;;;;;;;;;;5071780;28;20693;-83
2022/07/01 12:56:59;;;;;;;2.70;2.50;;;;;;;;;;5072814;28;20701;-83
2022/07/01 12:59:28;;;;;;;2.42;2.30;;;;;;;;;;5074039;28;20252;-82
2022/07/01 13:02:00;;;;;;;2.53;2.40;;;;;;;;;;5073781;28;20232;-82
2022/07/01 13:04:30;;;;;;;2.70;2.22;;;;;;;;;;5073801;28;20993;-82
2022/07/01 13:06:57;;;;;;;2.35;2.25;;;;;;;;;;5073834;28;20292;-83
2022/07/01 13:09:25;;;;;;;2.60;2.20;;;;;;;;;;5073750;28;20255;-83
2022/07/01 13:11:52;;;;;;;2.42;2.22;;;;;;;;;;5073441;28;20232;-82
2022/07/01 13:14:20;;;;;;;2.00;1.90;;;;;;;;;;5073777;28;20233;-82
2022/07/01 13:16:49;;;;;;;2.40;2.20;;;;;;;;;;5073397;28;20291;-82
2022/07/01 13:19:16;;;;;;;2.63;2.42;;;;;;;;;;5073556;28;20267;-82
2022/07/01 13:21:44;;;;;;;3.45;2.88;;;;;;;;;;5072980;28;20240;-83
2022/07/01 13:24:11;;;;;;;2.65;2.55;;;;;;;;;;5073271;28;20232;-82
2022/07/01 13:26:41;;;;;;;2.20;2.00;;;;;;;;;;5072965;28;20236;-83
2022/07/01 13:29:08;;;;;;;2.80;2.65;;;;;;;;;;5074947;28;20369;-82
2022/07/01 13:31:36;;;;;;;2.20;2.10;;;;;;;;;;5079611;28;20226;-82
2022/07/01 13:34:05;;;;;;;2.30;2.20;;;;;;;;;;5078706;28;20236;-83
2022/07/01 13:36:33;;;;;;;1.88;1.77;;;;;;;;;;5080218;28;20204;-82
2022/07/01 13:39:00;;;;;;;3.22;2.58;;;;;;;;;;5080053;28;20256;-82
2022/07/01 13:41:28;;;;;;;2.10;2.00;;;;;;;;;;5080831;28;20197;-82
2022/07/01 13:43:55;;;;;;;2.22;2.13;;;;;;;;;;5080685;28;20204;-81
2022/07/01 13:46:23;;;;;;;2.70;2.50;;;;;;;;;;5079950;28;20231;-82
2022/07/01 13:48:50;;;;;;;2.55;2.35;;;;;;;;;;5080116;28;20256;-82
2022/07/01 13:51:19;;;;;;;2.85;2.60;;;;;;;;;;5080534;28;20701;-81
2022/07/01 13:53:47;;;;;;;2.38;2.20;;;;;;;;;;5080804;28;20197;-82
2022/07/01 13:56:14;;;;;;;3.22;2.38;;;;;;;;;;5080433;28;20201;-82
2022/07/01 13:58:42;;;;;;;3.03;2.83;;;;;;;;;;5080795;28;20244;-82
2022/07/01 14:01:10;;;;;;;2.50;2.30;;;;;;;;;;5080917;28;20235;-82
2022/07/01 14:03:37;;;;;;;2.88;2.40;;;;;;;;;;5080556;28;20259;-81
2022/07/01 14:06:05;;;;;;;2.95;2.75;;;;;;;;;;5080707;28;20232;-81
2022/07/01 14:08:34;;;;;;;2.40;2.30;;;;;;;;;;5080987;28;20316;-81
2022/07/01 14:11:01;;;;;;;1.80;1.70;;;;;;;;;;5080748;28;20205;-82
2022/07/01 14:13:29;;;;;;;2.83;2.63;;;;;;;;;;5081128;28;20247;-82
2022/07/01 14:15:56;;;;;;;2.30;2.20;;;;;;;;;;5081331;28;20347;-82
2022/07/01 14:18:24;;;;;;;3.30;3.00;;;;;;;;;;5081231;28;20740;-82
2022/07/01 14:20:51;;;;;;;3.28;3.08;;;;;;;;;;5081034;28;20240;-82
2022/07/01 14:23:19;;;;;;;2.47;2.38;;;;;;;;;;5080803;28;20653;-82
2022/07/01 14:25:48;;;;;;;2.97;2.58;;;;;;;;;;5081010;28;20243;-82
2022/07/01 14:28:15;;;;;;;2.28;2.17;;;;;;;;;;5080578;28;20267;-82
2022/07/01 14:30:43;;;;;;;2.40;2.30;;;;;;;;;;5080237;28;20236;-81
2022/07/01 14:33:11;;;;;;;1.95;1.85;;;;;;;;;;5080784;28;20240;-82
2022/07/01 14:35:38;;;;;;;2.22;2.03;;;;;;;;;;5080938;28;20232;-82
2022/07/01 14:38:06;;;;;;;1.88;1.77;;;;;;;;;;5080638;28;20255;-82
2022/07/01 14:40:33;;;;;;;2.10;2.00;;;;;;;;;;5079288;28;20267;-82
2022/07/01 14:43:02;;;;;;;2.42;2.20;;;;;;;;;;5077423;28;20219;-82
2022/07/01 14:45:30;;;;;;;1.92;1.83;;;;;;;;;;5077681;28;20296;-83
2022/07/01 14:47:57;;;;;;;2.00;1.90;;;;;;;;;;5078075;28;20251;-82
2022/07/01 14:50:25;;;;;;;1.77;1.67;;;;;;;;;;5077615;28;20236;-82
2022/07/01 14:52:53;;;;;;;1.58;1.52;;;;;;;;;;5076931;28;20200;-82
2022/07/01 14:55:20;;;;;;;1.73;1.63;;;;;;;;;;5076175;28;20259;-81
2022/07/01 14:57:48;;;;;;;1.60;1.50;;;;;;;;;;5076500;28;20213;-82
2022/07/01 15:00:17;;;;;;;1.70;1.60;;;;;;;;;;5076809;28;20205;-82
2022/07/01 15:02:45;;;;;;;2.10;2.00;;;;;;;;;;5077112;28;20619;-82
2022/07/01 15:05:13;;;;;;;1.42;1.42;;;;;;;;;;5076896;28;20233;-82
2022/07/01 15:07:41;;;;;;;1.80;1.70;;;;;;;;;;5076730;28;20274;-81
2022/07/01 15:10:09;;;;;;;1.42;1.33;;;;;;;;;;5075891;28;20203;-81